Portada
METAR-TAF:

METAR-TAF

Aeroports :

Soldotna, Alaska, Estats Units d'Amèrica

latitud: 60-29N, longitud: 151-02W, altitud: 33 m

Observació

L'informe es va fer fa 1 hora i 9 minuts, a les 16:56 UTC
Vent 3 kt del Est
Temperatura 10°C
Humitat 71%
Pressió 1018 hPa
Visibilitat: 16.1 km
Cel clar

METAR: PASX 251656Z AUTO 09003KT 10SM CLR 10/05 A3006 RMK AO2 SLP190 T01000050

Hora: 10:05 (18:05 UTC)


TAF: manca

Observacions i pronòstics meteorològics de més de 4000 aeroports (METAR i TAF).

Les estacions disponibles són els punts grocs i vermells al mapa.

Posi el ratolí al punt desitjat per veure el nom de l'estació.

Feu clic per veure les observacions i els pronòstics meteorològics.

Per canviar el mapa: feu clic els botons verds amb una creu de color negre per apropar; al botó verd amb un guió per allunyar la imatge; o en les fletxes verdes per a mapes adjacents.


METAR-TAF: